Time;durP1;ratioP1;P1;durP2;ratioP2;P2;SDS_P1;SDS_P2;PMS_P1;PMS_P2;Temp;Humidity;BMP_temperature;BMP_pressure;BME280_temperature;BME280_humidity;BME280_pressure;Samples;Min_cycle;Max_cycle;Signal;HPM_P1;HPM_P2
2022/07/09 00:00:51;;;;;;;0.20;0.20;;;;;;;;;;5051574;28;20041;-73
2022/07/09 00:03:16;;;;;;;0.28;0.28;;;;;;;;;;5034006;28;20045;-73
2022/07/09 00:05:42;;;;;;;0.28;0.28;;;;;;;;;;5051471;28;20025;-74
2022/07/09 00:08:07;;;;;;;0.20;0.20;;;;;;;;;;5033787;28;20056;-73
2022/07/09 00:10:33;;;;;;;0.20;0.20;;;;;;;;;;5033730;28;20496;-73
2022/07/09 00:13:00;;;;;;;0.40;0.40;;;;;;;;;;5051947;28;20429;-74
2022/07/09 00:15:26;;;;;;;0.20;0.20;;;;;;;;;;5033490;28;20067;-74
2022/07/09 00:17:51;;;;;;;0.20;0.20;;;;;;;;;;5051461;28;20079;-74
2022/07/09 00:20:17;;;;;;;0.20;0.20;;;;;;;;;;5051605;28;20052;-73
2022/07/09 00:22:43;;;;;;;0.10;0.10;;;;;;;;;;5051313;28;20515;-68
2022/07/09 00:25:08;;;;;;;0.20;0.20;;;;;;;;;;5033571;28;20041;-68
2022/07/09 00:27:33;;;;;;;0.20;0.20;;;;;;;;;;5052001;28;20068;-68
2022/07/09 00:29:59;;;;;;;0.20;0.20;;;;;;;;;;5055292;28;20040;-67
2022/07/09 00:32:24;;;;;;;0.20;0.20;;;;;;;;;;5054615;28;20025;-68
2022/07/09 00:34:50;;;;;;;0.20;0.20;;;;;;;;;;5054798;28;20043;-68
2022/07/09 00:37:15;;;;;;;0.20;0.20;;;;;;;;;;5054768;28;20064;-68
2022/07/09 00:39:41;;;;;;;0.15;0.15;;;;;;;;;;5054531;28;20151;-69
2022/07/09 00:42:07;;;;;;;0.20;0.20;;;;;;;;;;5054885;28;20385;-68
2022/07/09 00:44:33;;;;;;;0.20;0.20;;;;;;;;;;5053288;28;20481;-68
2022/07/09 00:46:59;;;;;;;0.15;0.15;;;;;;;;;;5054291;28;20040;-67
2022/07/09 00:49:31;;;;;;;0.20;0.20;;;;;;;;;;5053325;28;20037;-67
2022/07/09 00:51:56;;;;;;;0.20;0.20;;;;;;;;;;5036609;28;20500;-67
2022/07/09 00:54:23;;;;;;;0.20;0.20;;;;;;;;;;5053080;28;20115;-67
2022/07/09 00:56:48;;;;;;;0.20;0.20;;;;;;;;;;5036631;28;20037;-69
2022/07/09 00:59:14;;;;;;;0.22;0.22;;;;;;;;;;5054483;28;20033;-67
2022/07/09 01:01:39;;;;;;;0.20;0.20;;;;;;;;;;5035271;28;20041;-68
2022/07/09 01:04:06;;;;;;;0.45;0.30;;;;;;;;;;5054378;28;20437;-68
2022/07/09 01:06:31;;;;;;;0.20;0.20;;;;;;;;;;5054293;28;20469;-67
2022/07/09 01:08:56;;;;;;;0.20;0.20;;;;;;;;;;5054038;28;20044;-67
2022/07/09 01:11:22;;;;;;;0.20;0.20;;;;;;;;;;5019854;28;20419;-69
2022/07/09 01:13:47;;;;;;;0.20;0.20;;;;;;;;;;5053069;28;20029;-67
2022/07/09 01:16:14;;;;;;;0.20;0.20;;;;;;;;;;5053944;28;20033;-68
2022/07/09 01:18:40;;;;;;;0.20;0.20;;;;;;;;;;5054228;28;20071;-67
2022/07/09 01:21:05;;;;;;;0.20;0.20;;;;;;;;;;5036353;28;20075;-68
2022/07/09 01:23:31;;;;;;;0.20;0.20;;;;;;;;;;5054042;28;20048;-69
2022/07/09 01:25:58;;;;;;;0.20;0.20;;;;;;;;;;5053874;28;20041;-68
2022/07/09 01:28:23;;;;;;;0.20;0.20;;;;;;;;;;5053994;28;20037;-67
2022/07/09 01:30:49;;;;;;;0.20;0.20;;;;;;;;;;5053026;28;20408;-67
2022/07/09 01:33:14;;;;;;;0.20;0.20;;;;;;;;;;5054053;28;20033;-67
2022/07/09 01:35:40;;;;;;;0.20;0.20;;;;;;;;;;5053803;28;20045;-68
2022/07/09 01:38:05;;;;;;;0.20;0.20;;;;;;;;;;5053928;28;20108;-68
2022/07/09 01:40:31;;;;;;;0.20;0.20;;;;;;;;;;5034924;28;20040;-67
2022/07/09 01:42:56;;;;;;;0.20;0.20;;;;;;;;;;5053852;28;20033;-67
2022/07/09 01:45:22;;;;;;;0.20;0.20;;;;;;;;;;5053756;28;20510;-67
2022/07/09 01:47:48;;;;;;;0.20;0.20;;;;;;;;;;5053488;28;20477;-67
2022/07/09 01:50:13;;;;;;;0.10;0.10;;;;;;;;;;5053663;28;20094;-68
2022/07/09 01:52:39;;;;;;;0.30;0.30;;;;;;;;;;5053437;28;20036;-68
2022/07/09 01:55:04;;;;;;;0.30;0.30;;;;;;;;;;5035725;28;20028;-68
2022/07/09 01:57:30;;;;;;;0.20;0.20;;;;;;;;;;5053379;28;20041;-68
2022/07/09 01:59:55;;;;;;;0.30;0.30;;;;;;;;;;5054114;28;20491;-67
2022/07/09 02:02:21;;;;;;;0.30;0.30;;;;;;;;;;5036350;28;20040;-67
2022/07/09 02:04:46;;;;;;;0.20;0.20;;;;;;;;;;5053549;28;20056;-67
2022/07/09 02:07:13;;;;;;;0.20;0.20;;;;;;;;;;5052364;28;20037;-67
2022/07/09 02:09:39;;;;;;;0.20;0.20;;;;;;;;;;5053333;28;20033;-69
2022/07/09 02:12:04;;;;;;;0.20;0.20;;;;;;;;;;5035610;28;20025;-67
2022/07/09 02:14:30;;;;;;;0.20;0.20;;;;;;;;;;5053603;28;20044;-67
2022/07/09 02:16:56;;;;;;;0.20;0.20;;;;;;;;;;5035194;28;20033;-67
2022/07/09 02:19:21;;;;;;;0.20;0.20;;;;;;;;;;5053112;28;20039;-68
2022/07/09 02:21:46;;;;;;;0.20;0.20;;;;;;;;;;5053151;28;20041;-67
2022/07/09 02:24:12;;;;;;;0.17;0.17;;;;;;;;;;5053016;28;20469;-68
2022/07/09 02:26:38;;;;;;;0.20;0.20;;;;;;;;;;5051694;28;20039;-68
2022/07/09 02:29:04;;;;;;;1.38;1.27;;;;;;;;;;5035273;28;20036;-68
2022/07/09 02:31:29;;;;;;;0.30;0.30;;;;;;;;;;5035135;28;20098;-68
2022/07/09 02:33:55;;;;;;;0.20;0.20;;;;;;;;;;5052966;28;20041;-67
2022/07/09 02:36:21;;;;;;;0.20;0.20;;;;;;;;;;5051874;28;20044;-68
2022/07/09 02:38:46;;;;;;;0.82;0.82;;;;;;;;;;5052776;28;20078;-68
2022/07/09 02:41:12;;;;;;;0.20;0.20;;;;;;;;;;5034887;28;20384;-67
2022/07/09 02:43:38;;;;;;;0.15;0.15;;;;;;;;;;5053135;28;20413;-70
2022/07/09 02:46:03;;;;;;;0.20;0.20;;;;;;;;;;5034956;28;20492;-67
2022/07/09 02:48:29;;;;;;;0.20;0.20;;;;;;;;;;5034828;28;20035;-67
2022/07/09 02:50:55;;;;;;;0.20;0.20;;;;;;;;;;5052532;28;20033;-67
2022/07/09 02:53:20;;;;;;;0.10;0.10;;;;;;;;;;5052565;28;20122;-67
2022/07/09 02:55:46;;;;;;;0.20;0.20;;;;;;;;;;5052481;28;20063;-67
2022/07/09 02:58:12;;;;;;;0.20;0.20;;;;;;;;;;5052660;28;20064;-68
2022/07/09 03:00:39;;;;;;;0.20;0.20;;;;;;;;;;5051145;28;20048;-69
2022/07/09 03:03:05;;;;;;;0.30;0.30;;;;;;;;;;5030507;28;20032;-70
2022/07/09 03:05:30;;;;;;;0.20;0.20;;;;;;;;;;5048505;28;20052;-68
2022/07/09 03:07:56;;;;;;;0.20;0.20;;;;;;;;;;5048670;28;20043;-67
2022/07/09 03:10:22;;;;;;;0.15;0.15;;;;;;;;;;5048503;28;20388;-67
2022/07/09 03:12:47;;;;;;;0.20;0.20;;;;;;;;;;5048787;28;20037;-67
2022/07/09 03:15:14;;;;;;;0.20;0.20;;;;;;;;;;5047996;28;20085;-67
2022/07/09 03:17:40;;;;;;;0.20;0.20;;;;;;;;;;5046276;28;20041;-67
2022/07/09 03:20:06;;;;;;;0.20;0.20;;;;;;;;;;5048190;28;20964;-67
2022/07/09 03:22:31;;;;;;;0.17;0.17;;;;;;;;;;5048224;28;20051;-68
2022/07/09 03:24:57;;;;;;;0.20;0.20;;;;;;;;;;5047185;28;20045;-68
2022/07/09 03:27:22;;;;;;;0.28;0.28;;;;;;;;;;5047748;28;20033;-67
2022/07/09 03:29:48;;;;;;;0.28;0.28;;;;;;;;;;5048214;28;20044;-67
2022/07/09 03:32:13;;;;;;;0.20;0.20;;;;;;;;;;5030034;28;20033;-68
2022/07/09 03:34:39;;;;;;;0.20;0.20;;;;;;;;;;5048102;28;20075;-68
2022/07/09 03:37:05;;;;;;;0.15;0.15;;;;;;;;;;5047932;28;20362;-73
2022/07/09 03:39:31;;;;;;;0.13;0.13;;;;;;;;;;5047625;28;20049;-69
2022/07/09 03:41:56;;;;;;;0.30;0.30;;;;;;;;;;5013747;28;20126;-68
2022/07/09 03:44:22;;;;;;;0.20;0.20;;;;;;;;;;5030094;28;20108;-68
2022/07/09 03:46:47;;;;;;;0.20;0.20;;;;;;;;;;5047940;28;20091;-68
2022/07/09 03:49:13;;;;;;;0.17;0.17;;;;;;;;;;5046539;28;20040;-73
2022/07/09 03:51:38;;;;;;;0.20;0.20;;;;;;;;;;5047521;28;20041;-69
2022/07/09 03:54:04;;;;;;;0.20;0.20;;;;;;;;;;5047814;28;20456;-69
2022/07/09 03:56:29;;;;;;;0.20;0.20;;;;;;;;;;5047527;28;20115;-68
2022/07/09 03:58:55;;;;;;;0.20;0.20;;;;;;;;;;5047653;28;20083;-70
2022/07/09 04:01:20;;;;;;;0.20;0.20;;;;;;;;;;5029577;28;20033;-68
2022/07/09 04:03:46;;;;;;;0.10;0.10;;;;;;;;;;5050288;28;20063;-68
2022/07/09 04:06:12;;;;;;;0.20;0.20;;;;;;;;;;5051285;28;20029;-69
2022/07/09 04:08:37;;;;;;;0.17;0.17;;;;;;;;;;5033248;28;20032;-72
2022/07/09 04:11:03;;;;;;;0.30;0.30;;;;;;;;;;5050990;28;20542;-68
2022/07/09 04:13:28;;;;;;;0.20;0.20;;;;;;;;;;5042485;28;20411;-69
2022/07/09 04:15:54;;;;;;;0.20;0.20;;;;;;;;;;5050888;28;20384;-69
2022/07/09 04:18:19;;;;;;;0.20;0.20;;;;;;;;;;5051032;28;20029;-72
2022/07/09 04:20:45;;;;;;;0.20;0.20;;;;;;;;;;5050986;28;20047;-69
2022/07/09 04:23:10;;;;;;;0.20;0.20;;;;;;;;;;5051236;28;20043;-68
2022/07/09 04:25:36;;;;;;;0.28;0.28;;;;;;;;;;5049222;28;20381;-70
2022/07/09 04:28:01;;;;;;;0.10;0.10;;;;;;;;;;5033266;28;20116;-68
2022/07/09 04:30:27;;;;;;;0.32;0.30;;;;;;;;;;5051000;28;20040;-68
2022/07/09 04:32:53;;;;;;;0.20;0.20;;;;;;;;;;5050764;28;20041;-69
2022/07/09 04:35:18;;;;;;;0.30;0.30;;;;;;;;;;5050844;28;20033;-69
2022/07/09 04:37:43;;;;;;;0.20;0.20;;;;;;;;;;5050754;28;20058;-72
2022/07/09 04:40:09;;;;;;;0.20;0.20;;;;;;;;;;5050974;28;20041;-69
2022/07/09 04:42:35;;;;;;;0.20;0.20;;;;;;;;;;5051261;28;20033;-68
2022/07/09 04:45:00;;;;;;;0.20;0.20;;;;;;;;;;5050664;28;20044;-68
2022/07/09 04:47:26;;;;;;;0.20;0.20;;;;;;;;;;5049294;28;20257;-68
2022/07/09 04:49:51;;;;;;;0.28;0.28;;;;;;;;;;5050737;28;20122;-68
2022/07/09 04:52:19;;;;;;;0.20;0.20;;;;;;;;;;5050431;28;20125;-68
2022/07/09 04:54:45;;;;;;;0.20;0.20;;;;;;;;;;5048887;28;20037;-69
2022/07/09 04:57:11;;;;;;;1.23;1.20;;;;;;;;;;5016088;28;20061;-68
2022/07/09 04:59:36;;;;;;;0.20;0.20;;;;;;;;;;5050486;28;20082;-68
2022/07/09 05:02:02;;;;;;;0.20;0.20;;;;;;;;;;5050371;28;20064;-68
2022/07/09 05:04:27;;;;;;;0.22;0.22;;;;;;;;;;5050700;28;20037;-68
2022/07/09 05:06:53;;;;;;;0.20;0.20;;;;;;;;;;5037108;28;20029;-68
2022/07/09 05:09:19;;;;;;;0.20;0.20;;;;;;;;;;5050123;28;20041;-68
2022/07/09 05:11:44;;;;;;;0.22;0.22;;;;;;;;;;5015961;28;20686;-68
2022/07/09 05:14:10;;;;;;;0.20;0.20;;;;;;;;;;5049175;28;20095;-68
2022/07/09 05:16:35;;;;;;;0.20;0.20;;;;;;;;;;5032417;28;20033;-68
2022/07/09 05:19:01;;;;;;;0.20;0.20;;;;;;;;;;5050432;28;20461;-68
2022/07/09 05:21:26;;;;;;;0.20;0.20;;;;;;;;;;5050023;28;20029;-68
2022/07/09 05:23:52;;;;;;;0.20;0.20;;;;;;;;;;5049966;28;20045;-68
2022/07/09 05:26:17;;;;;;;0.10;0.10;;;;;;;;;;5050004;28;20039;-68
2022/07/09 05:28:42;;;;;;;0.20;0.20;;;;;;;;;;5049120;28;20044;-70
2022/07/09 05:31:08;;;;;;;0.10;0.10;;;;;;;;;;5050117;28;20112;-73
2022/07/09 05:33:35;;;;;;;0.30;0.30;;;;;;;;;;5048606;28;20167;-68
2022/07/09 05:36:00;;;;;;;0.20;0.20;;;;;;;;;;5015853;28;20041;-68
2022/07/09 05:38:25;;;;;;;0.20;0.20;;;;;;;;;;5049929;28;20103;-68
2022/07/09 05:40:51;;;;;;;0.20;0.20;;;;;;;;;;5050050;28;20039;-68
2022/07/09 05:43:17;;;;;;;0.20;0.20;;;;;;;;;;5015145;28;20132;-70
2022/07/09 05:45:43;;;;;;;0.20;0.20;;;;;;;;;;5015395;28;20025;-67
2022/07/09 05:48:09;;;;;;;0.28;0.28;;;;;;;;;;5015351;28;20041;-68
2022/07/09 05:50:34;;;;;;;0.30;0.30;;;;;;;;;;5049743;28;20488;-68
2022/07/09 05:53:00;;;;;;;0.20;0.20;;;;;;;;;;5031105;28;20500;-67
2022/07/09 05:55:25;;;;;;;0.20;0.20;;;;;;;;;;5030342;28;20040;-71
2022/07/09 05:57:51;;;;;;;0.20;0.20;;;;;;;;;;5047653;28;20045;-68
2022/07/09 06:00:16;;;;;;;0.20;0.20;;;;;;;;;;5047449;28;20029;-68
2022/07/09 06:02:42;;;;;;;0.20;0.20;;;;;;;;;;5047530;28;20048;-68
2022/07/09 06:05:07;;;;;;;0.20;0.20;;;;;;;;;;5047534;28;20476;-70
2022/07/09 06:07:33;;;;;;;0.30;0.30;;;;;;;;;;5047447;28;20469;-68
2022/07/09 06:09:58;;;;;;;0.20;0.20;;;;;;;;;;5053881;28;20090;-69
2022/07/09 06:12:24;;;;;;;0.20;0.20;;;;;;;;;;5056007;28;20043;-68
2022/07/09 06:14:49;;;;;;;0.20;0.20;;;;;;;;;;5053347;28;20037;-72
2022/07/09 06:17:15;;;;;;;0.20;0.20;;;;;;;;;;5049613;28;20041;-68
2022/07/09 06:19:40;;;;;;;0.20;0.20;;;;;;;;;;5050269;28;20064;-68
2022/07/09 06:22:06;;;;;;;0.40;0.40;;;;;;;;;;5050079;28;20033;-68
2022/07/09 06:24:31;;;;;;;0.20;0.20;;;;;;;;;;5049006;28;20082;-69
2022/07/09 06:26:57;;;;;;;0.30;0.30;;;;;;;;;;5048992;28;20450;-69
2022/07/09 06:29:22;;;;;;;0.20;0.20;;;;;;;;;;5049218;28;20086;-68
2022/07/09 06:31:48;;;;;;;0.20;0.20;;;;;;;;;;5049379;28;20469;-68
2022/07/09 06:34:13;;;;;;;0.20;0.20;;;;;;;;;;5049242;28;20035;-68
2022/07/09 06:36:39;;;;;;;0.30;0.30;;;;;;;;;;5049040;28;20033;-70
2022/07/09 06:41:49;;;;;;;0.20;0.20;;;;;;;;;;5049352;28;20036;-67
2022/07/09 06:44:14;;;;;;;0.20;0.20;;;;;;;;;;5049249;28;20461;-68
2022/07/09 06:46:40;;;;;;;0.20;0.20;;;;;;;;;;5049231;28;20037;-68
2022/07/09 06:49:05;;;;;;;0.30;0.30;;;;;;;;;;5048884;28;20415;-67
2022/07/09 06:51:31;;;;;;;0.30;0.30;;;;;;;;;;5030743;28;20040;-69
2022/07/09 06:53:56;;;;;;;0.30;0.30;;;;;;;;;;5048775;28;20392;-68
2022/07/09 06:56:22;;;;;;;0.30;0.30;;;;;;;;;;5048893;28;20119;-69
2022/07/09 06:58:47;;;;;;;0.20;0.20;;;;;;;;;;5048713;28;20240;-68
2022/07/09 07:01:13;;;;;;;0.30;0.30;;;;;;;;;;5048805;28;20029;-68
2022/07/09 07:03:38;;;;;;;0.30;0.30;;;;;;;;;;5048291;28;20025;-69
2022/07/09 07:06:04;;;;;;;0.20;0.20;;;;;;;;;;5049100;28;20356;-67
2022/07/09 07:08:29;;;;;;;0.30;0.30;;;;;;;;;;5048524;28;20119;-68
2022/07/09 07:10:55;;;;;;;0.22;0.22;;;;;;;;;;5048108;28;20048;-68
2022/07/09 07:13:20;;;;;;;0.30;0.30;;;;;;;;;;5048236;28;20052;-67
2022/07/09 07:15:49;;;;;;;0.30;0.30;;;;;;;;;;5048278;28;20121;-68
2022/07/09 07:18:15;;;;;;;0.38;0.38;;;;;;;;;;5048297;28;20082;-68
2022/07/09 07:20:40;;;;;;;0.20;0.20;;;;;;;;;;5048247;28;20072;-69
2022/07/09 07:23:05;;;;;;;0.30;0.30;;;;;;;;;;5048522;28;20056;-69
2022/07/09 07:25:31;;;;;;;1.08;0.98;;;;;;;;;;5048019;28;20045;-67
2022/07/09 07:27:56;;;;;;;0.40;0.40;;;;;;;;;;5048374;28;20112;-67
2022/07/09 07:30:22;;;;;;;0.30;0.30;;;;;;;;;;5048398;28;20033;-67
2022/07/09 07:32:47;;;;;;;0.30;0.30;;;;;;;;;;5048201;28;20065;-68
2022/07/09 07:35:13;;;;;;;0.40;0.40;;;;;;;;;;5030553;28;20115;-67
2022/07/09 07:37:38;;;;;;;0.30;0.30;;;;;;;;;;5048691;28;20047;-71
2022/07/09 07:40:04;;;;;;;0.30;0.30;;;;;;;;;;5052108;28;20041;-67
2022/07/09 07:42:30;;;;;;;0.30;0.30;;;;;;;;;;5051868;28;20033;-67
2022/07/09 07:44:55;;;;;;;0.40;0.40;;;;;;;;;;5034157;28;20036;-66
2022/07/09 07:47:21;;;;;;;0.30;0.30;;;;;;;;;;5033858;28;20154;-69
2022/07/09 07:49:46;;;;;;;0.40;0.40;;;;;;;;;;5051791;28;20036;-70
2022/07/09 07:52:12;;;;;;;0.30;0.30;;;;;;;;;;5051470;28;20033;-67
2022/07/09 07:54:37;;;;;;;0.30;0.30;;;;;;;;;;5044008;28;20041;-72
2022/07/09 07:57:03;;;;;;;0.50;0.50;;;;;;;;;;5050304;28;20040;-68
2022/07/09 07:59:28;;;;;;;0.40;0.40;;;;;;;;;;5051034;28;20115;-67
2022/07/09 08:01:54;;;;;;;0.30;0.30;;;;;;;;;;5050103;28;20083;-67
2022/07/09 08:04:20;;;;;;;0.30;0.30;;;;;;;;;;5049722;28;20037;-71
2022/07/09 08:06:45;;;;;;;0.32;0.32;;;;;;;;;;5051603;28;20090;-67
2022/07/09 08:09:11;;;;;;;0.40;0.40;;;;;;;;;;5051204;28;20037;-68
2022/07/09 08:11:36;;;;;;;0.30;0.30;;;;;;;;;;5033179;28;20789;-67
2022/07/09 08:14:02;;;;;;;0.30;0.30;;;;;;;;;;5051444;28;20036;-67
2022/07/09 08:16:28;;;;;;;0.30;0.30;;;;;;;;;;5051261;28;20041;-68
2022/07/09 08:18:53;;;;;;;0.40;0.40;;;;;;;;;;5051234;28;20041;-68
2022/07/09 08:21:19;;;;;;;0.40;0.40;;;;;;;;;;5051138;28;20032;-69
2022/07/09 08:23:56;;;;;;;0.30;0.30;;;;;;;;;;5050988;28;20370;-68
2022/07/09 08:26:25;;;;;;;0.40;0.40;;;;;;;;;;5033607;28;20062;-68
2022/07/09 08:28:51;;;;;;;;;;;;;;;;;;5033978;28;20499;-68
2022/07/09 08:31:17;;;;;;;0.40;0.40;;;;;;;;;;5051243;28;19963;-68
2022/07/09 08:33:45;;;;;;;0.40;0.40;;;;;;;;;;5050779;28;20091;-68
2022/07/09 08:36:11;;;;;;;0.45;0.45;;;;;;;;;;5049026;28;20037;-69
2022/07/09 08:38:37;;;;;;;0.40;0.40;;;;;;;;;;5031665;28;20576;-75
2022/07/09 08:41:06;;;;;;;0.40;0.40;;;;;;;;;;5032157;28;20107;-77
2022/07/09 08:43:36;;;;;;;0.40;0.40;;;;;;;;;;5032055;28;20500;-75
2022/07/09 08:46:02;;;;;;;0.40;0.40;;;;;;;;;;5032396;28;20044;-76
2022/07/09 08:48:28;;;;;;;0.40;0.40;;;;;;;;;;5049193;28;20041;-76
2022/07/09 08:50:55;;;;;;;0.40;0.40;;;;;;;;;;5049446;28;20041;-76
2022/07/09 08:53:20;;;;;;;0.40;0.40;;;;;;;;;;5032492;28;20151;-74
2022/07/09 08:55:45;;;;;;;0.30;0.30;;;;;;;;;;5032665;28;20531;-76
2022/07/09 08:58:14;;;;;;;0.50;0.50;;;;;;;;;;5050684;28;20496;-76
2022/07/09 09:00:40;;;;;;;0.30;0.30;;;;;;;;;;5049034;28;20041;-76
2022/07/09 09:03:06;;;;;;;0.50;0.50;;;;;;;;;;5029937;28;20030;-76
2022/07/09 09:05:31;;;;;;;0.50;0.50;;;;;;;;;;5034698;28;20052;-76
2022/07/09 09:07:57;;;;;;;0.30;0.30;;;;;;;;;;5048378;28;20033;-75
2022/07/09 09:10:23;;;;;;;0.47;0.47;;;;;;;;;;5048399;28;20120;-75
2022/07/09 09:12:49;;;;;;;0.35;0.35;;;;;;;;;;5048744;28;20036;-75
2022/07/09 09:15:19;;;;;;;0.40;0.40;;;;;;;;;;5048600;28;20041;-76
2022/07/09 09:17:44;;;;;;;0.40;0.40;;;;;;;;;;5047248;28;20492;-76
2022/07/09 09:20:10;;;;;;;0.40;0.40;;;;;;;;;;5030161;28;20091;-75
2022/07/09 09:22:43;;;;;;;0.40;0.40;;;;;;;;;;5029928;28;20063;-75
2022/07/09 09:25:14;;;;;;;0.40;0.40;;;;;;;;;;5046700;28;20062;-75
2022/07/09 09:27:39;;;;;;;0.30;0.30;;;;;;;;;;5047764;28;20025;-76
2022/07/09 09:30:09;;;;;;;0.52;0.52;;;;;;;;;;5048261;28;20123;-74
2022/07/09 09:32:34;;;;;;;0.43;0.43;;;;;;;;;;5048291;28;20033;-76
2022/07/09 09:35:02;;;;;;;0.40;0.40;;;;;;;;;;5049979;28;20043;-76
2022/07/09 09:37:28;;;;;;;0.47;0.47;;;;;;;;;;5048715;28;20069;-76
2022/07/09 09:39:54;;;;;;;0.30;0.30;;;;;;;;;;5050067;28;20048;-76
2022/07/09 09:42:22;;;;;;;0.30;0.30;;;;;;;;;;5031858;28;20519;-76
2022/07/09 09:44:49;;;;;;;0.45;0.45;;;;;;;;;;5015805;28;20029;-76
2022/07/09 09:47:16;;;;;;;0.52;0.52;;;;;;;;;;5049883;28;20584;-76
2022/07/09 09:49:42;;;;;;;0.60;0.60;;;;;;;;;;5049326;28;20439;-76
2022/07/09 09:52:08;;;;;;;0.47;0.47;;;;;;;;;;5049930;28;20037;-74
2022/07/09 09:54:35;;;;;;;0.50;0.50;;;;;;;;;;5049922;28;20037;-76
2022/07/09 09:57:05;;;;;;;0.80;0.80;;;;;;;;;;5032153;28;20862;-75
2022/07/09 09:59:31;;;;;;;0.30;0.30;;;;;;;;;;5031995;28;20079;-74
2022/07/09 10:01:56;;;;;;;0.30;0.30;;;;;;;;;;5031200;28;20041;-76
2022/07/09 10:04:22;;;;;;;0.38;0.38;;;;;;;;;;5049468;28;20484;-76
2022/07/09 10:06:47;;;;;;;0.65;0.60;;;;;;;;;;5049492;28;20064;-76
2022/07/09 10:09:13;;;;;;;0.40;0.40;;;;;;;;;;5050036;28;20047;-75
2022/07/09 10:11:40;;;;;;;0.57;0.57;;;;;;;;;;5049203;28;20080;-75
2022/07/09 10:14:06;;;;;;;0.25;0.25;;;;;;;;;;5031553;28;20392;-75
2022/07/09 10:16:35;;;;;;;0.30;0.30;;;;;;;;;;5049154;28;20048;-76
2022/07/09 10:19:01;;;;;;;0.40;0.40;;;;;;;;;;5015698;28;20037;-76
2022/07/09 10:21:36;;;;;;;0.35;0.35;;;;;;;;;;5052518;28;20502;-72
2022/07/09 10:24:03;;;;;;;1.60;0.50;;;;;;;;;;5065933;28;20017;-75
2022/07/09 10:26:37;;;;;;;0.30;0.30;;;;;;;;;;5067459;28;20088;-75
2022/07/09 10:29:02;;;;;;;0.60;0.50;;;;;;;;;;5034351;28;20040;-75
2022/07/09 10:31:29;;;;;;;0.30;0.30;;;;;;;;;;5048291;28;20025;-75
2022/07/09 10:34:01;;;;;;;4.80;4.38;;;;;;;;;;5031616;28;20047;-75
2022/07/09 10:36:27;;;;;;;0.40;0.40;;;;;;;;;;5047953;28;20116;-74
2022/07/09 10:38:53;;;;;;;0.47;0.47;;;;;;;;;;5048982;28;20124;-74
2022/07/09 10:41:23;;;;;;;0.28;0.28;;;;;;;;;;5030809;28;20036;-74
2022/07/09 10:43:52;;;;;;;0.38;0.38;;;;;;;;;;5014593;28;20043;-75
2022/07/09 10:46:18;;;;;;;0.30;0.30;;;;;;;;;;5031504;28;20037;-75
2022/07/09 10:48:44;;;;;;;0.50;0.30;;;;;;;;;;5047980;28;20471;-75
2022/07/09 10:51:19;;;;;;;1.58;0.80;;;;;;;;;;5031269;28;20032;-75
2022/07/09 10:53:45;;;;;;;0.93;0.63;;;;;;;;;;5047709;28;20045;-75
2022/07/09 10:56:11;;;;;;;0.90;0.60;;;;;;;;;;5048749;28;20037;-76
2022/07/09 10:58:36;;;;;;;0.95;0.55;;;;;;;;;;5048693;28;20392;-77
2022/07/09 11:01:04;;;;;;;0.47;0.47;;;;;;;;;;5031008;28;20027;-76
2022/07/09 11:03:30;;;;;;;0.32;0.32;;;;;;;;;;5030414;28;20060;-75
2022/07/09 11:05:56;;;;;;;0.45;0.45;;;;;;;;;;5048627;28;20281;-74
2022/07/09 11:08:22;;;;;;;0.70;0.60;;;;;;;;;;5047987;28;20484;-76
2022/07/09 11:10:47;;;;;;;0.82;0.75;;;;;;;;;;5048619;28;20033;-76
2022/07/09 11:13:13;;;;;;;1.73;0.80;;;;;;;;;;5048462;28;20124;-76
2022/07/09 11:15:38;;;;;;;0.50;0.50;;;;;;;;;;5048059;28;20028;-75
2022/07/09 11:18:10;;;;;;;0.50;0.50;;;;;;;;;;5048389;28;20094;-78
2022/07/09 11:20:40;;;;;;;1.55;0.70;;;;;;;;;;5014294;28;20041;-75
2022/07/09 11:23:06;;;;;;;0.30;0.30;;;;;;;;;;5030551;28;20041;-75
2022/07/09 11:25:31;;;;;;;1.13;0.50;;;;;;;;;;5030289;28;20040;-75
2022/07/09 11:27:58;;;;;;;1.92;1.00;;;;;;;;;;5048408;28;20434;-74
2022/07/09 11:30:24;;;;;;;0.85;0.35;;;;;;;;;;5030330;28;20033;-73
2022/07/09 11:32:50;;;;;;;0.40;0.40;;;;;;;;;;5048314;28;20051;-75
2022/07/09 11:35:28;;;;;;;0.40;0.40;;;;;;;;;;5030340;28;20488;-74
2022/07/09 11:37:54;;;;;;;1.50;0.80;;;;;;;;;;5015436;28;20068;-74
2022/07/09 11:40:20;;;;;;;0.95;0.30;;;;;;;;;;5030463;28;20142;-75
2022/07/09 11:42:45;;;;;;;0.35;0.35;;;;;;;;;;5046889;28;20033;-76
2022/07/09 11:45:11;;;;;;;3.53;0.50;;;;;;;;;;5048222;28;20025;-76
2022/07/09 11:47:38;;;;;;;0.30;0.30;;;;;;;;;;5029988;28;20089;-75
2022/07/09 11:50:15;;;;;;;0.38;0.38;;;;;;;;;;5030475;28;20123;-75
2022/07/09 11:52:45;;;;;;;0.30;0.30;;;;;;;;;;5046636;28;20584;-76
2022/07/09 11:55:11;;;;;;;1.08;0.60;;;;;;;;;;5030030;28;20049;-76
2022/07/09 11:57:37;;;;;;;0.40;0.40;;;;;;;;;;5047574;28;20064;-76
2022/07/09 12:00:06;;;;;;;0.63;0.40;;;;;;;;;;5030259;28;20107;-76
2022/07/09 12:02:39;;;;;;;1.55;0.47;;;;;;;;;;5015315;28;20077;-76
2022/07/09 12:05:06;;;;;;;1.60;1.02;;;;;;;;;;5029982;28;20033;-76
2022/07/09 12:07:32;;;;;;;0.40;0.40;;;;;;;;;;5029496;28;20037;-76
2022/07/09 12:10:17;;;;;;;0.52;0.43;;;;;;;;;;5030254;28;20029;-75
2022/07/09 12:12:43;;;;;;;0.40;0.40;;;;;;;;;;5029686;28;20136;-75
2022/07/09 12:15:09;;;;;;;0.70;0.55;;;;;;;;;;5047874;28;20124;-77
2022/07/09 12:17:35;;;;;;;0.40;0.40;;;;;;;;;;5029781;28;20415;-75
2022/07/09 12:20:06;;;;;;;0.30;0.30;;;;;;;;;;5029924;28;20086;-76
2022/07/09 12:22:31;;;;;;;0.68;0.50;;;;;;;;;;5048082;28;20037;-76
2022/07/09 12:24:57;;;;;;;0.50;0.45;;;;;;;;;;5050073;28;20090;-76
2022/07/09 12:27:22;;;;;;;1.25;0.60;;;;;;;;;;5033172;28;20037;-75
2022/07/09 12:29:48;;;;;;;0.65;0.50;;;;;;;;;;5051226;28;20119;-75
2022/07/09 12:32:14;;;;;;;0.98;0.43;;;;;;;;;;5016986;28;20045;-74
2022/07/09 12:34:39;;;;;;;0.60;0.60;;;;;;;;;;5050794;28;20033;-76
2022/07/09 12:37:05;;;;;;;0.77;0.60;;;;;;;;;;5033242;28;20048;-74
2022/07/09 12:39:30;;;;;;;0.50;0.50;;;;;;;;;;5051094;28;20040;-75
2022/07/09 12:41:55;;;;;;;1.05;0.40;;;;;;;;;;5051212;28;20043;-74
2022/07/09 12:44:21;;;;;;;2.92;0.60;;;;;;;;;;5033611;28;20033;-75
2022/07/09 12:46:46;;;;;;;0.40;0.40;;;;;;;;;;5049605;28;20411;-74
2022/07/09 12:49:12;;;;;;;0.50;0.50;;;;;;;;;;5050700;28;20021;-75
2022/07/09 12:51:37;;;;;;;0.50;0.50;;;;;;;;;;5050234;28;20068;-74
2022/07/09 12:54:03;;;;;;;0.40;0.40;;;;;;;;;;5049685;28;20135;-76
2022/07/09 12:56:28;;;;;;;0.80;0.60;;;;;;;;;;5050810;28;20044;-76
2022/07/09 12:58:54;;;;;;;1.00;0.73;;;;;;;;;;5050655;28;20020;-73
2022/07/09 13:01:19;;;;;;;1.00;0.70;;;;;;;;;;5032184;28;20044;-74
2022/07/09 13:03:45;;;;;;;0.70;0.50;;;;;;;;;;5050570;28;20060;-75
2022/07/09 13:06:53;;;;;;;0.75;0.50;;;;;;;;;;5050501;28;20435;-73
2022/07/09 13:09:00;;;;;;;7.57;0.73;;;;;;;;;;5042350;28;20045;-74
2022/07/09 13:11:25;;;;;;;0.68;0.40;;;;;;;;;;5032252;28;20554;-73
2022/07/09 13:13:51;;;;;;;0.50;0.50;;;;;;;;;;5050486;28;20073;-75
2022/07/09 13:16:16;;;;;;;0.30;0.30;;;;;;;;;;5050033;28;20388;-75
2022/07/09 13:18:42;;;;;;;1.08;0.50;;;;;;;;;;5050336;28;20074;-76
2022/07/09 13:21:07;;;;;;;0.30;0.30;;;;;;;;;;5049065;28;20434;-74
2022/07/09 13:23:33;;;;;;;0.25;0.25;;;;;;;;;;5050313;28;20033;-76
2022/07/09 13:25:58;;;;;;;0.40;0.40;;;;;;;;;;5050161;28;20025;-76
2022/07/09 13:28:24;;;;;;;1.65;0.82;;;;;;;;;;5050202;28;20029;-74
2022/07/09 13:30:50;;;;;;;0.43;0.43;;;;;;;;;;5050387;28;20392;-78
2022/07/09 13:33:15;;;;;;;0.40;0.40;;;;;;;;;;5050285;28;20083;-76
2022/07/09 13:35:41;;;;;;;0.95;0.73;;;;;;;;;;5047450;28;20044;-74
2022/07/09 13:38:06;;;;;;;4.03;1.05;;;;;;;;;;5031952;28;20094;-77
2022/07/09 13:40:32;;;;;;;0.70;0.70;;;;;;;;;;5049131;28;20032;-75
2022/07/09 13:42:57;;;;;;;0.50;0.50;;;;;;;;;;5048596;28;20037;-74
2022/07/09 13:45:23;;;;;;;0.30;0.30;;;;;;;;;;5049773;28;20033;-77
2022/07/09 13:47:49;;;;;;;0.40;0.40;;;;;;;;;;5049645;28;20029;-77
2022/07/09 13:50:14;;;;;;;0.60;0.60;;;;;;;;;;5048234;28;20108;-77
2022/07/09 13:52:39;;;;;;;0.63;0.60;;;;;;;;;;5049658;28;20041;-76
2022/07/09 13:55:05;;;;;;;0.50;0.50;;;;;;;;;;5049799;28;20056;-75
2022/07/09 13:57:31;;;;;;;1.15;1.02;;;;;;;;;;5031518;28;20102;-76
2022/07/09 13:59:57;;;;;;;0.52;0.50;;;;;;;;;;5048273;28;20045;-76
2022/07/09 14:02:22;;;;;;;1.45;0.70;;;;;;;;;;5049599;28;20043;-75
2022/07/09 14:04:49;;;;;;;0.75;0.40;;;;;;;;;;5048217;28;20129;-76
2022/07/09 14:07:15;;;;;;;1.85;1.17;;;;;;;;;;5031604;28;20494;-76
2022/07/09 14:09:40;;;;;;;0.40;0.40;;;;;;;;;;5031100;28;20049;-76
2022/07/09 14:12:06;;;;;;;0.35;0.35;;;;;;;;;;5049580;28;20052;-76
2022/07/09 14:14:31;;;;;;;0.30;0.30;;;;;;;;;;5049546;28;20542;-76
2022/07/09 14:16:57;;;;;;;0.60;0.60;;;;;;;;;;5049389;28;20059;-75
2022/07/09 14:19:22;;;;;;;1.05;0.47;;;;;;;;;;5049163;28;20118;-76
2022/07/09 14:21:47;;;;;;;0.38;0.38;;;;;;;;;;5049400;28;20453;-75
2022/07/09 14:24:13;;;;;;;1.48;0.80;;;;;;;;;;5048137;28;20029;-77
2022/07/09 14:26:41;;;;;;;0.50;0.50;;;;;;;;;;5049338;28;20032;-75
2022/07/09 14:29:06;;;;;;;0.50;0.45;;;;;;;;;;5049265;28;20083;-76
2022/07/09 14:31:32;;;;;;;0.63;0.40;;;;;;;;;;5034162;28;20567;-76
2022/07/09 14:33:57;;;;;;;1.38;0.70;;;;;;;;;;5053980;28;20083;-75
2022/07/09 14:36:23;;;;;;;0.85;0.50;;;;;;;;;;5033086;28;20068;-75
2022/07/09 14:38:49;;;;;;;1.15;0.50;;;;;;;;;;5049436;28;20051;-76